createdAt,value
2022-11-15T00:01:10.369Z,95939.97
2022-11-15T00:03:38.245Z,95934.41
2022-11-15T00:06:06.671Z,95905.47
2022-11-15T00:08:35.820Z,95937.63
2022-11-15T00:11:05.198Z,95937.34
2022-11-15T00:13:33.602Z,95940.00
2022-11-15T00:16:03.197Z,95938.38
2022-11-15T00:18:31.937Z,95935.16
2022-11-15T00:21:06.243Z,95940.50
2022-11-15T00:23:35.565Z,95934.38
2022-11-15T00:26:03.803Z,95910.22
2022-11-15T00:28:32.028Z,95928.03
2022-11-15T00:31:03.217Z,95928.84
2022-11-15T00:33:31.264Z,95925.13
2022-11-15T00:36:03.434Z,95921.09
2022-11-15T00:38:33.662Z,95921.84
2022-11-15T00:41:08.876Z,95911.75
2022-11-15T00:43:37.606Z,95909.38
2022-11-15T00:46:05.617Z,95915.72
2022-11-15T00:48:33.618Z,95915.47
2022-11-15T00:51:01.411Z,95913.88
2022-11-15T00:53:30.042Z,95919.75
2022-11-15T00:55:58.072Z,95911.19
2022-11-15T00:58:27.257Z,95915.19
2022-11-15T01:00:55.863Z,95901.63
2022-11-15T01:03:23.784Z,95901.69
2022-11-15T01:05:51.579Z,95905.47
2022-11-15T01:08:19.475Z,95902.59
2022-11-15T01:10:47.293Z,95899.13
2022-11-15T01:13:15.118Z,95903.91
2022-11-15T01:15:44.811Z,95909.22
2022-11-15T01:18:12.681Z,95901.78
2022-11-15T01:20:42.462Z,95898.84
2022-11-15T01:23:10.323Z,95907.66
2022-11-15T01:25:38.143Z,95899.16
2022-11-15T01:28:06.324Z,95903.97
2022-11-15T01:30:34.291Z,95901.34
2022-11-15T01:33:03.486Z,95899.78
2022-11-15T01:35:31.331Z,95826.88
2022-11-15T01:37:59.144Z,95896.31
2022-11-15T01:40:27.001Z,95904.59
2022-11-15T01:42:54.809Z,95902.44
2022-11-15T01:45:22.652Z,95900.88
2022-11-15T01:47:54.142Z,95890.22
2022-11-15T01:50:28.032Z,95895.28
2022-11-15T01:52:56.030Z,95893.69
2022-11-15T01:55:27.172Z,95895.56
2022-11-15T01:57:59.211Z,95895.84
2022-11-15T02:00:27.073Z,95888.66
2022-11-15T02:02:55.087Z,95892.09
2022-11-15T02:05:25.634Z,95891.56
2022-11-15T02:07:53.669Z,95899.31
2022-11-15T02:10:23.605Z,95900.34
2022-11-15T02:12:51.927Z,95900.63
2022-11-15T02:15:20.110Z,95895.84
2022-11-15T02:18:12.087Z,95895.03
2022-11-15T02:20:48.239Z,95891.31
2022-11-15T02:23:52.142Z,95891.03
2022-11-15T02:26:40.652Z,95895.28
2022-11-15T02:29:11.904Z,95893.44
2022-11-15T02:31:50.711Z,95892.91
2022-11-15T02:34:27.246Z,95896.63
2022-11-15T02:37:04.337Z,95876.63
2022-11-15T02:39:37.857Z,95890.50
2022-11-15T02:42:31.272Z,95888.09
2022-11-15T02:45:04.749Z,95882.25
2022-11-15T02:47:39.853Z,95890.75
2022-11-15T02:50:11.035Z,95833.75
2022-11-15T02:52:38.909Z,95894.72
2022-11-15T02:55:07.373Z,95884.91
2022-11-15T02:57:46.379Z,95884.34
2022-11-15T03:00:17.200Z,95895.81
2022-11-15T03:03:07.474Z,95853.22
2022-11-15T03:05:39.435Z,95893.66
2022-11-15T03:08:12.710Z,95889.69
2022-11-15T03:10:47.427Z,95902.75
2022-11-15T03:13:27.538Z,95888.09
2022-11-15T03:16:04.250Z,95891.28
2022-11-15T03:18:36.026Z,95897.38
2022-11-15T03:21:07.799Z,95890.44
2022-11-15T03:23:38.606Z,95886.94
2022-11-15T03:26:11.169Z,95888.03
2022-11-15T03:28:43.276Z,95874.75
2022-11-15T03:31:29.370Z,95888.59
2022-11-15T03:34:01.224Z,95885.16
2022-11-15T03:36:29.776Z,95872.34
2022-11-15T03:39:02.128Z,95874.75
2022-11-15T03:41:37.153Z,95875.28
2022-11-15T03:44:12.179Z,95872.88
2022-11-15T03:46:45.149Z,95876.34
2022-11-15T03:49:19.486Z,95864.31
2022-11-15T03:51:47.420Z,95864.06
2022-11-15T03:54:15.820Z,95862.44
2022-11-15T03:56:43.599Z,95866.97
2022-11-15T03:59:11.400Z,95864.56
2022-11-15T04:01:39.335Z,95855.81
2022-11-15T04:04:07.229Z,95859.72
2022-11-15T04:06:37.088Z,95857.59
2022-11-15T04:09:05.202Z,95866.13
2022-11-15T04:11:33.022Z,95860.00
2022-11-15T04:14:00.871Z,95858.97
2022-11-15T04:16:28.684Z,95858.44
2022-11-15T04:19:10.415Z,95853.38
2022-11-15T04:21:57.383Z,95842.44
2022-11-15T04:24:25.210Z,95848.81
2022-11-15T04:26:53.006Z,95847.47
2022-11-15T04:29:39.112Z,95847.97
2022-11-15T04:32:08.574Z,95848.25
2022-11-15T04:34:36.455Z,95846.69
2022-11-15T04:37:14.531Z,95847.47
2022-11-15T04:39:42.684Z,95849.66
2022-11-15T04:42:10.942Z,95848.88
2022-11-15T04:44:38.874Z,95843.28
2022-11-15T04:47:06.943Z,95846.75
2022-11-15T04:49:34.863Z,95849.16
2022-11-15T04:52:02.771Z,95850.53
2022-11-15T04:54:31.961Z,95853.72
2022-11-15T04:56:59.813Z,95844.97
2022-11-15T04:59:28.174Z,95844.69
2022-11-15T05:01:56.005Z,95846.56
2022-11-15T05:04:22.882Z,95854.84
2022-11-15T05:06:52.306Z,95853.25
2022-11-15T05:09:21.845Z,95852.97
2022-11-15T05:11:51.187Z,95847.38
2022-11-15T05:14:19.097Z,95776.34
2022-11-15T05:16:46.964Z,95851.66
2022-11-15T05:19:14.927Z,95850.84
2022-11-15T05:21:42.734Z,95847.09
2022-11-15T05:24:12.116Z,95851.38
2022-11-15T05:26:39.950Z,95849.22
2022-11-15T05:29:12.171Z,95854.56
2022-11-15T05:31:41.925Z,95849.75
2022-11-15T05:34:09.975Z,95844.94
2022-11-15T05:36:39.890Z,95847.06
2022-11-15T05:39:09.533Z,95823.13
2022-11-15T05:41:41.238Z,95842.28
2022-11-15T05:44:13.203Z,95843.06
2022-11-15T05:46:42.633Z,95846.50
2022-11-15T05:49:13.850Z,95848.34
2022-11-15T05:51:42.962Z,95832.16
2022-11-15T05:54:11.737Z,95849.97
2022-11-15T05:56:40.219Z,95850.47
2022-11-15T05:59:09.430Z,95810.31
2022-11-15T06:01:39.503Z,95814.56
2022-11-15T06:04:07.545Z,95855.50
2022-11-15T06:06:35.388Z,95849.59
2022-11-15T06:09:03.342Z,95841.88
2022-11-15T06:11:31.164Z,95852.78
2022-11-15T06:13:59.029Z,95864.72
2022-11-15T06:16:26.858Z,95860.72
2022-11-15T06:18:56.098Z,95855.41
2022-11-15T06:21:24.341Z,95864.72
2022-11-15T06:23:52.166Z,95861.50
2022-11-15T06:26:19.997Z,95869.44
2022-11-15T06:28:47.908Z,95863.28
2022-11-15T06:31:15.719Z,95858.94
2022-11-15T06:33:43.536Z,95850.44
2022-11-15T06:36:17.898Z,95859.97
2022-11-15T06:38:46.386Z,95856.25
2022-11-15T06:41:15.959Z,95853.72
2022-11-15T06:43:44.090Z,95849.19
2022-11-15T06:46:12.329Z,95847.66
2022-11-15T06:48:40.479Z,95853.81
2022-11-15T06:51:09.095Z,95852.50
2022-11-15T06:53:38.773Z,95853.00
2022-11-15T06:56:08.287Z,95853.47
2022-11-15T06:58:36.577Z,95571.53
2022-11-15T07:01:06.848Z,95822.69
2022-11-15T07:03:36.941Z,95851.41
2022-11-15T07:06:07.389Z,95809.34
2022-11-15T07:08:36.799Z,95853.19
2022-11-15T07:11:07.752Z,95846.25
2022-11-15T07:13:37.151Z,95833.53
2022-11-15T07:16:05.796Z,95850.22
2022-11-15T07:18:35.437Z,95843.19
2022-11-15T07:21:04.800Z,95840.28
2022-11-15T07:23:33.528Z,95833.88
2022-11-15T07:26:01.934Z,95828.03
2022-11-15T07:28:31.395Z,95841.66
2022-11-15T07:30:59.558Z,95850.16
2022-11-15T07:33:27.472Z,95842.41
2022-11-15T07:35:55.255Z,95853.28
2022-11-15T07:38:23.036Z,95836.59
2022-11-15T07:40:58.311Z,95843.47
2022-11-15T07:43:26.189Z,95847.25
2022-11-15T07:45:59.115Z,95842.56
2022-11-15T07:48:42.276Z,95848.44
2022-11-15T07:51:14.614Z,95832.13
2022-11-15T07:53:42.890Z,95808.94
2022-11-15T07:56:11.509Z,95840.50
2022-11-15T07:58:39.627Z,95839.31
2022-11-15T08:01:10.832Z,95765.75
2022-11-15T08:03:39.654Z,95845.53
2022-11-15T08:06:07.814Z,95829.25
2022-11-15T08:08:35.677Z,95841.47
2022-11-15T08:11:04.247Z,95792.00
2022-11-15T08:13:32.554Z,95838.22
2022-11-15T08:16:01.490Z,95839.06
2022-11-15T08:18:30.679Z,95816.16
2022-11-15T08:21:01.836Z,95841.91
2022-11-15T08:23:30.211Z,95828.59
2022-11-15T08:26:03.270Z,95833.09
2022-11-15T08:28:31.629Z,95817.72
2022-11-15T08:30:59.703Z,95818.81
2022-11-15T08:33:27.773Z,95811.56
2022-11-15T08:36:00.062Z,95822.34
2022-11-15T08:38:29.810Z,95820.44
2022-11-15T08:41:03.765Z,95823.50
2022-11-15T08:43:32.351Z,95821.56
2022-11-15T08:46:00.939Z,95757.53
2022-11-15T08:48:29.018Z,95811.09
2022-11-15T08:50:57.710Z,95804.41
2022-11-15T08:53:26.996Z,95808.59
2022-11-15T08:55:54.940Z,95806.66
2022-11-15T08:58:22.760Z,95802.63
2022-11-15T09:00:50.595Z,95797.50
2022-11-15T09:03:18.392Z,95789.88
2022-11-15T09:05:46.257Z,95789.72
2022-11-15T09:08:40.890Z,95784.47
2022-11-15T09:11:07.135Z,95781.75
2022-11-15T09:13:35.605Z,95785.34
2022-11-15T09:16:03.634Z,95785.03
2022-11-15T09:18:32.002Z,95776.53
2022-11-15T09:21:00.977Z,95780.81
2022-11-15T09:23:29.967Z,95774.13
2022-11-15T09:26:02.109Z,95768.22
2022-11-15T09:31:21.064Z,95761.66
2022-11-15T09:33:49.949Z,95761.72
2022-11-15T09:36:18.263Z,95759.34
2022-11-15T09:38:46.076Z,95756.16
2022-11-15T09:41:30.231Z,95746.66
2022-11-15T09:44:13.010Z,95752.88
2022-11-15T09:46:54.503Z,95745.16
2022-11-15T09:49:24.206Z,95731.22
2022-11-15T09:51:55.129Z,95762.63
2022-11-15T09:54:52.142Z,95741.56
2022-11-15T09:57:23.574Z,95728.53
2022-11-15T10:00:30.849Z,95720.78
2022-11-15T10:03:10.495Z,95719.06
2022-11-15T10:05:41.553Z,95707.06
2022-11-15T10:08:25.431Z,95711.81
2022-11-15T10:11:22.718Z,95705.69
2022-11-15T10:13:48.640Z,95701.28
2022-11-15T10:16:33.737Z,95686.22
2022-11-15T10:19:10.261Z,95698.53
2022-11-15T10:21:47.755Z,95702.28
2022-11-15T10:24:21.180Z,95693.38
2022-11-15T10:26:49.396Z,95686.34
2022-11-15T10:29:26.435Z,95688.06
2022-11-15T10:31:56.520Z,95685.28
2022-11-15T10:34:25.980Z,95681.19
2022-11-15T10:36:58.105Z,95674.97
2022-11-15T10:42:19.608Z,95664.03
2022-11-15T10:44:47.752Z,95653.28
2022-11-15T10:47:39.542Z,95645.41
2022-11-15T10:50:27.725Z,95645.63
2022-11-15T10:52:55.985Z,95641.75
2022-11-15T10:55:30.282Z,95643.47
2022-11-15T10:58:04.724Z,95644.94
2022-11-15T11:00:36.121Z,95635.78
2022-11-15T11:03:08.303Z,95630.94
2022-11-15T11:05:42.187Z,95619.66
2022-11-15T11:08:24.540Z,95616.34
2022-11-15T11:11:00.081Z,95609.25
2022-11-15T11:13:30.087Z,95605.91
2022-11-15T11:16:09.410Z,95597.97
2022-11-15T11:18:46.246Z,95600.44
2022-11-15T11:21:22.653Z,95604.53
2022-11-15T11:23:55.562Z,95586.81
2022-11-15T11:26:41.635Z,95594.56
2022-11-15T11:29:26.731Z,95584.22
2022-11-15T11:32:01.140Z,95571.31
2022-11-15T11:34:52.481Z,95562.91
2022-11-15T11:37:27.430Z,95554.03
2022-11-15T11:40:12.857Z,95526.34
2022-11-15T11:42:50.304Z,95538.84
2022-11-15T11:45:23.834Z,95536.59
2022-11-15T11:48:01.225Z,95534.88
2022-11-15T11:50:30.499Z,95529.28
2022-11-15T11:53:04.431Z,95529.75
2022-11-15T11:55:38.995Z,95533.84
2022-11-15T11:58:15.281Z,95526.88
2022-11-15T12:00:47.778Z,95522.44
2022-11-15T12:03:24.339Z,95514.25
2022-11-15T12:05:58.746Z,95507.63
2022-11-15T12:08:38.004Z,95502.28
2022-11-15T12:11:13.209Z,95477.91
2022-11-15T12:13:42.399Z,95493.91
2022-11-15T12:16:17.101Z,95488.22
2022-11-15T12:18:49.813Z,95484.03
2022-11-15T12:21:28.708Z,95489.63
2022-11-15T12:24:05.140Z,95477.72
2022-11-15T12:26:39.241Z,95479.94
2022-11-15T12:29:14.156Z,95473.25
2022-11-15T12:31:45.805Z,95470.25
2022-11-15T12:34:37.161Z,95472.00
2022-11-15T12:37:58.972Z,95451.88
2022-11-15T12:40:30.052Z,95462.91
2022-11-15T12:43:04.043Z,95458.66
2022-11-15T12:45:34.055Z,95430.50
2022-11-15T12:48:44.463Z,95450.53
2022-11-15T12:51:12.358Z,95442.25
2022-11-15T12:53:41.630Z,95439.59
2022-11-15T12:56:22.797Z,95443.09
2022-11-15T12:58:53.502Z,95424.78
2022-11-15T13:02:10.241Z,95438.38
2022-11-15T13:04:38.120Z,95432.41
2022-11-15T13:07:08.611Z,95387.09
2022-11-15T13:09:57.709Z,95437.81
2022-11-15T13:12:52.506Z,95427.81
2022-11-15T13:15:42.862Z,95420.59
2022-11-15T13:18:32.766Z,95414.84
2022-11-15T13:21:02.987Z,95414.28
2022-11-15T13:23:31.232Z,95413.09
2022-11-15T13:26:14.485Z,95411.56
2022-11-15T13:28:46.787Z,95409.84
2022-11-15T13:31:39.420Z,95407.34
2022-11-15T13:34:50.058Z,95399.53
2022-11-15T13:37:29.746Z,95408.13
2022-11-15T13:40:12.024Z,95401.88
2022-11-15T13:42:45.597Z,95404.50
2022-11-15T13:45:17.815Z,95405.03
2022-11-15T13:47:45.694Z,95395.28
2022-11-15T13:50:14.842Z,95416.13
2022-11-15T13:52:46.907Z,95401.91
2022-11-15T13:55:17.998Z,95406.66
2022-11-15T13:57:50.249Z,95395.94
2022-11-15T14:00:29.444Z,95389.63
2022-11-15T14:02:58.706Z,95394.56
2022-11-15T14:05:27.103Z,95400.28
2022-11-15T14:07:56.496Z,95394.44
2022-11-15T14:10:31.030Z,95393.66
2022-11-15T14:13:01.116Z,95390.03
2022-11-15T14:15:32.250Z,95393.56
2022-11-15T14:18:00.286Z,95385.19
2022-11-15T14:20:31.805Z,95390.25
2022-11-15T14:23:01.438Z,95384.53
2022-11-15T14:25:30.874Z,95384.88
2022-11-15T14:28:30.262Z,95378.69
2022-11-15T14:31:00.139Z,95385.38
2022-11-15T14:33:31.839Z,95381.09
2022-11-15T14:36:04.134Z,95363.56
2022-11-15T14:38:32.337Z,95381.25
2022-11-15T14:41:00.888Z,95389.03
2022-11-15T14:43:30.111Z,95385.84
2022-11-15T14:45:58.264Z,95224.22
2022-11-15T14:48:26.125Z,95394.78
2022-11-15T14:50:54.147Z,95388.31
2022-11-15T14:53:23.125Z,95352.38
2022-11-15T14:55:51.271Z,95388.28
2022-11-15T14:58:20.150Z,95381.50
2022-11-15T15:00:49.370Z,95379.91
2022-11-15T15:03:17.228Z,95385.75
2022-11-15T15:05:46.096Z,95383.84
2022-11-15T15:08:13.993Z,95387.13
2022-11-15T15:10:45.423Z,95388.34
2022-11-15T15:13:19.175Z,95310.97
2022-11-15T15:15:47.859Z,95370.16
2022-11-15T15:18:17.432Z,95371.09
2022-11-15T15:20:47.328Z,95372.63
2022-11-15T15:23:19.724Z,95360.13
2022-11-15T15:25:49.739Z,95374.19
2022-11-15T15:28:17.699Z,95331.47
2022-11-15T15:30:45.759Z,95356.28
2022-11-15T15:33:13.698Z,95364.16
2022-11-15T15:35:43.473Z,95366.22
2022-11-15T15:38:14.020Z,95372.69
2022-11-15T15:40:41.855Z,95366.53
2022-11-15T15:43:10.298Z,95368.44
2022-11-15T15:45:40.287Z,95373.66
2022-11-15T15:48:10.526Z,95368.91
2022-11-15T15:50:38.532Z,95375.31
2022-11-15T15:53:09.110Z,95379.38
2022-11-15T15:55:37.013Z,95379.19
2022-11-15T15:58:05.880Z,95369.88
2022-11-15T16:00:34.710Z,95360.84
2022-11-15T16:03:02.674Z,95369.81
2022-11-15T16:05:30.542Z,95366.03
2022-11-15T16:07:58.459Z,95367.16
2022-11-15T16:10:29.634Z,95368.22
2022-11-15T16:12:58.626Z,95362.59
2022-11-15T16:15:27.895Z,95365.97
2022-11-15T16:17:57.000Z,95366.34
2022-11-15T16:20:33.198Z,95377.66
2022-11-15T16:23:07.233Z,95383.22
2022-11-15T16:25:41.402Z,95377.88
2022-11-15T16:28:18.732Z,95370.91
2022-11-15T16:30:47.628Z,95378.81
2022-11-15T16:33:21.198Z,95376.28
2022-11-15T16:35:49.667Z,95372.03
2022-11-15T16:38:17.939Z,95375.31
2022-11-15T16:40:47.270Z,95301.97
2022-11-15T16:43:15.315Z,95372.97
2022-11-15T16:45:43.195Z,95366.22
2022-11-15T16:48:22.880Z,95356.06
2022-11-15T16:50:50.724Z,95349.34
2022-11-15T16:53:18.790Z,95366.16
2022-11-15T16:55:48.014Z,95354.66
2022-11-15T16:58:15.859Z,95354.78
2022-11-15T17:00:43.759Z,95352.25
2022-11-15T17:03:11.991Z,95354.66
2022-11-15T17:05:39.857Z,95358.63
2022-11-15T17:08:07.991Z,95212.22
2022-11-15T17:10:35.962Z,95350.50
2022-11-15T17:13:05.128Z,95348.13
2022-11-15T17:15:32.914Z,95341.03
2022-11-15T17:18:00.781Z,95334.94
2022-11-15T17:20:28.638Z,95339.19
2022-11-15T17:22:57.354Z,95333.34
2022-11-15T17:25:25.269Z,95340.34
2022-11-15T17:27:53.411Z,95351.78
2022-11-15T17:30:22.699Z,95345.59
2022-11-15T17:32:50.528Z,95322.91
2022-11-15T17:35:18.371Z,95338.75
2022-11-15T17:37:47.416Z,95339.22
2022-11-15T17:40:15.426Z,95353.09
2022-11-15T17:42:43.294Z,95340.22
2022-11-15T17:45:12.655Z,95336.91
2022-11-15T17:47:41.815Z,95333.47
2022-11-15T17:50:10.687Z,95330.09
2022-11-15T17:52:38.575Z,95323.03
2022-11-15T17:55:07.198Z,95329.38
2022-11-15T17:57:35.075Z,95336.97
2022-11-15T18:00:03.131Z,95338.16
2022-11-15T18:02:31.745Z,95329.41
2022-11-15T18:05:00.932Z,95327.75
2022-11-15T18:07:28.847Z,95326.94
2022-11-15T18:09:56.998Z,95335.91
2022-11-15T18:12:24.867Z,95333.88
2022-11-15T18:14:52.707Z,95327.44
2022-11-15T18:17:20.524Z,95315.75
2022-11-15T18:19:48.650Z,95322.78
2022-11-15T18:22:18.586Z,95323.53
2022-11-15T18:24:47.077Z,95311.31
2022-11-15T18:27:14.903Z,95312.19
2022-11-15T18:29:42.769Z,95317.09
2022-11-15T18:32:15.082Z,95308.00
2022-11-15T18:34:42.923Z,95310.38
2022-11-15T18:37:11.101Z,95301.72
2022-11-15T18:39:40.336Z,95308.16
2022-11-15T18:42:08.242Z,95313.53
2022-11-15T18:44:36.144Z,95317.16
2022-11-15T18:47:04.044Z,95284.13
2022-11-15T18:49:31.992Z,95300.72
2022-11-15T18:51:59.856Z,95314.31
2022-11-15T18:54:31.380Z,95309.56
2022-11-15T18:57:01.716Z,95301.03
2022-11-15T18:59:30.695Z,95308.38
2022-11-15T19:01:58.523Z,95303.13
2022-11-15T19:04:26.435Z,95303.66
2022-11-15T19:06:54.529Z,95299.38
2022-11-15T19:09:24.480Z,95294.63
2022-11-15T19:11:52.308Z,95297.91
2022-11-15T19:14:24.185Z,95307.22
2022-11-15T19:16:53.151Z,95297.03
2022-11-15T19:19:22.808Z,95259.69
2022-11-15T19:21:50.701Z,95291.53
2022-11-15T19:24:18.592Z,95285.69
2022-11-15T19:26:46.477Z,95289.34
2022-11-15T19:29:14.979Z,95288.38
2022-11-15T19:31:44.337Z,95275.84
2022-11-15T19:34:12.941Z,95223.59
2022-11-15T19:36:42.481Z,95278.78
2022-11-15T19:39:13.096Z,95282.84
2022-11-15T19:41:42.510Z,95275.06
2022-11-15T19:44:11.177Z,95279.81
2022-11-15T19:46:39.398Z,95283.28
2022-11-15T19:49:10.642Z,95266.03
2022-11-15T19:51:41.528Z,95285.47
2022-11-15T19:54:10.664Z,95283.50
2022-11-15T19:56:39.895Z,95281.91
2022-11-15T19:59:08.619Z,95293.19
2022-11-15T20:01:39.274Z,95293.66
2022-11-15T20:04:10.047Z,95294.94
2022-11-15T20:06:40.989Z,95294.78
2022-11-15T20:09:09.654Z,95299.84
2022-11-15T20:11:39.390Z,95292.97
2022-11-15T20:14:09.513Z,95304.88
2022-11-15T20:16:37.494Z,95311.31
2022-11-15T20:19:05.641Z,95264.78
2022-11-15T20:21:34.849Z,95309.81
2022-11-15T20:24:03.012Z,95312.00
2022-11-15T20:26:32.235Z,95301.72
2022-11-15T20:29:03.538Z,95299.63
2022-11-15T20:31:32.122Z,95298.34
2022-11-15T20:34:00.333Z,95292.22
2022-11-15T20:36:28.649Z,95219.41
2022-11-15T20:39:01.277Z,95283.22
2022-11-15T20:41:29.426Z,95284.38
2022-11-15T20:43:57.449Z,95285.56
2022-11-15T20:46:25.310Z,95285.69
2022-11-15T20:48:53.133Z,95269.25
2022-11-15T20:51:21.160Z,95276.38
2022-11-15T20:53:49.925Z,95273.72
2022-11-15T20:56:21.206Z,95268.56
2022-11-15T20:58:50.424Z,95267.44
2022-11-15T21:01:23.555Z,95262.72
2022-11-15T21:03:52.985Z,95264.91
2022-11-15T21:06:21.185Z,95251.16
2022-11-15T21:09:07.143Z,95257.47
2022-11-15T21:11:54.210Z,95263.69
2022-11-15T21:14:22.351Z,95255.00
2022-11-15T21:16:50.251Z,95245.38
2022-11-15T21:19:20.627Z,95244.41
2022-11-15T21:21:51.936Z,95248.47
2022-11-15T21:24:20.282Z,95246.28
2022-11-15T21:26:49.539Z,95249.16
2022-11-15T21:29:18.071Z,95242.41
2022-11-15T21:31:46.490Z,95235.56
2022-11-15T21:34:14.471Z,95226.75
2022-11-15T21:36:42.451Z,95223.72
2022-11-15T21:39:10.714Z,95233.22
2022-11-15T21:41:38.685Z,95230.22
2022-11-15T21:44:08.608Z,95217.84
2022-11-15T21:46:37.306Z,95219.81
2022-11-15T21:49:06.486Z,95211.69
2022-11-15T21:51:35.408Z,95170.19
2022-11-15T21:54:03.351Z,95213.63
2022-11-15T21:56:32.389Z,95220.22
2022-11-15T21:59:01.055Z,95214.97
2022-11-15T22:01:47.777Z,95214.97
2022-11-15T22:04:15.955Z,95203.06
2022-11-15T22:06:43.829Z,95195.75
2022-11-15T22:09:11.701Z,95192.31
2022-11-15T22:11:39.771Z,95189.16
2022-11-15T22:14:07.800Z,95198.94
2022-11-15T22:16:37.681Z,95205.84
2022-11-15T22:19:05.871Z,95196.19
2022-11-15T22:21:33.939Z,95196.84
2022-11-15T22:24:02.229Z,95186.25
2022-11-15T22:26:30.156Z,95177.75
2022-11-15T22:28:58.128Z,95177.28
2022-11-15T22:31:26.072Z,95178.25
2022-11-15T22:33:55.405Z,95180.63
2022-11-15T22:36:26.203Z,95167.91
2022-11-15T22:38:58.290Z,95171.34
2022-11-15T22:41:26.303Z,95167.03
2022-11-15T22:43:54.674Z,95161.69
2022-11-15T22:46:22.734Z,95150.94
2022-11-15T22:48:50.681Z,95145.91
2022-11-15T22:51:20.030Z,95154.34
2022-11-15T22:53:48.151Z,95160.25
2022-11-15T22:56:20.128Z,95157.00
2022-11-15T22:58:48.392Z,95157.28
2022-11-15T23:01:22.375Z,95158.13
2022-11-15T23:03:50.369Z,95154.50
2022-11-15T23:06:19.717Z,95151.50
2022-11-15T23:08:47.650Z,95151.75
2022-11-15T23:11:33.361Z,95159.09
2022-11-15T23:14:01.348Z,95144.75
2022-11-15T23:16:35.369Z,95149.28
2022-11-15T23:19:06.118Z,95144.53
2022-11-15T23:21:54.239Z,95148.56
2022-11-15T23:24:22.880Z,95131.88
2022-11-15T23:26:52.692Z,95138.78
2022-11-15T23:29:22.935Z,95123.81
2022-11-15T23:32:08.243Z,95131.28
2022-11-15T23:34:38.128Z,95095.22
2022-11-15T23:37:08.359Z,95120.63
2022-11-15T23:39:36.308Z,95082.75
2022-11-15T23:42:09.059Z,95128.69
2022-11-15T23:44:37.692Z,95128.91
2022-11-15T23:47:05.933Z,95110.28
2022-11-15T23:49:33.833Z,95122.84
2022-11-15T23:52:01.754Z,95131.34
2022-11-15T23:54:31.796Z,95110.56
2022-11-15T23:56:59.698Z,95109.16
2022-11-15T23:59:27.744Z,95110.75
